Ocean King D — V7TV6 — position and weather

sailwx.info

Track history (hours):
 
Tides and Currents Weather Stations Pressure Air Temp Water Temp Dewpoint Dewpoint Depression Visibility Wind Speed Wind Dir Waves Ship Positions

Ocean King D

Last reported at 2014-Sep-17 04:22 UTC. Time now 2014-Sep-21 16:13 UTC.
Position N 38°03' E 025°38'.

Length 190 m; draft 6.2 m.

Type: Cargo ship. MMSI: 538003892.

Date/timePositionNaut miles runAvg speedWind from/ knotsBaromVisibWave heightAir tempDewpointWater temp
2014-Sep-17 04:22N 38°03' E 025°38'1 1.3
2014-Sep-17 03:21N 38°04' E 025°36'3 1.3
2014-Sep-17 01:04N 38°06' E 025°33'2 1.6
2014-Sep-17 00:04N 38°06' E 025°31'1 1.7
2014-Sep-16 23:27N 38°07' E 025°30'5 5.5
2014-Sep-16 22:33N 38°05' E 025°24'1413.4
2014-Sep-16 21:31N 38°04' E 025°07'2612.2
2014-Sep-16 19:21N 37°55' E 024°35'1114.1
2014-Sep-16 18:33N 37°48' E 024°24'1614.0
2014-Sep-16 17:23N 37°37' E 024°09'1813.7
2014-Sep-16 16:04N 37°36' E 023°46'713.0
2014-Sep-16 15:33N 37°42' E 023°41'1312.6
2014-Sep-16 14:33N 37°50' E 023°29'22 5.1
2014-Sep-16 10:12N 37°55' E 023°02'0 0.0
2014-Sep-15 21:33N 37°55' E 023°02'0 0.0
2014-Sep-15 14:12N 37°55' E 023°02'0 0.2
2014-Sep-15 13:33N 37°55' E 023°01'0 0.0
2014-Sep-15 12:33N 37°55' E 023°01'0 0.2
2014-Sep-15 11:18N 37°55' E 023°02'0 0.1
2014-Sep-15 10:33N 37°55' E 023°02'0 0.0
2014-Sep-15 09:33N 37°55' E 023°02'0 0.0
2014-Sep-15 08:33N 37°55' E 023°02'0 0.0
2014-Sep-15 07:24N 37°55' E 023°02'0 0.0
2014-Sep-15 06:30N 37°55' E 023°02'0 0.0
2014-Sep-15 05:30N 37°55' E 023°02'0 0.0
2014-Sep-15 04:30N 37°55' E 023°02'0 0.0
2014-Sep-15 03:33N 37°55' E 023°02'0 0.0
2014-Sep-15 02:33N 37°55' E 023°02'0 0.0
2014-Sep-15 01:33N 37°55' E 023°02'0 0.0
2014-Sep-14 23:33N 37°55' E 023°02'0 0.1
2014-Sep-14 22:33N 37°55' E 023°02'0 0.0
2014-Sep-14 21:24N 37°55' E 023°02'0 0.1
2014-Sep-14 20:30N 37°55' E 023°02'0 0.1
2014-Sep-14 19:30N 37°55' E 023°02'0 0.0
2014-Sep-14 18:33N 37°55' E 023°02'0 0.1
2014-Sep-14 17:33N 37°55' E 023°02'0 0.0
2014-Sep-14 08:27N 37°55' E 023°02'0 0.0
2014-Sep-14 07:06N 37°55' E 023°02'0 0.0
2014-Sep-14 06:12N 37°55' E 023°02'0 0.0
2014-Sep-13 05:27N 37°55' E 023°02'0 0.0
2014-Sep-13 04:30N 37°55' E 023°02'0 0.0
2014-Sep-13 02:15N 37°55' E 023°02'0 0.0
2014-Sep-12 20:30N 37°55' E 023°02'0 0.0
2014-Sep-12 18:24N 37°55' E 023°02'0 0.1
2014-Sep-12 17:09N 37°55' E 023°02'0 0.0
2014-Sep-12 09:18N 37°55' E 023°02'0 0.0
2014-Sep-12 04:15N 37°55' E 023°02'0 0.0
2014-Sep-12 00:27N 37°55' E 023°02'0 0.0
2014-Sep-11 18:18N 37°55' E 023°02'0 0.0
2014-Sep-11 08:33N 37°55' E 023°02'0 0.1
2014-Sep-11 07:12N 37°55' E 023°02'0 0.1
2014-Sep-11 06:27N 37°55' E 023°02'0 0.0
2014-Sep-10 22:18N 37°55' E 023°02'0 0.0
2014-Sep-10 17:21N 37°55' E 023°01'0 0.0
2014-Sep-10 16:30N 37°55' E 023°01'  
2014-Sep-08 04:33N 37°55' E 023°02'1 0.1
2014-Sep-08 00:11N 37°55' E 023°02'0 0.0
2014-Sep-07 22:32N 37°55' E 023°02'8 6.6
2014-Sep-07 21:19N 37°53' E 023°12'911.8
2014-Sep-07 20:33N 37°51' E 023°23'1313.0
2014-Sep-07 19:34N 37°50' E 023°39'1413.8
2014-Sep-07 18:33N 37°38' E 023°47'18 1.8
2014-Sep-07 08:16N 37°46' E 024°07'7 9.5
2014-Sep-07 07:33N 37°40' E 024°11'1414.4
2014-Sep-07 06:33N 37°26' E 024°10'1413.9
2014-Sep-07 05:34N 37°12' E 024°10'1414.3
2014-Sep-07 04:34N 36°58' E 024°09'  
Track history (hours):
 
Tides and Currents Weather Stations Pressure Air Temp Water Temp Dewpoint Dewpoint Depression Visibility Wind Speed Wind Dir Waves Ship Positions

Ocean King D

Last reported at 2014-Sep-17 04:22 UTC. Time now 2014-Sep-21 16:13 UTC.
Position N 38°03' E 025°38'.

Length 190 m; draft 6.2 m.

Type: Cargo ship. MMSI: 538003892.

Date/timePositionNaut miles runAvg speedWind from/ knotsBaromVisibWave heightAir tempDewpointWater temp
2014-Sep-17 04:22N 38°03' E 025°38'1 1.3
2014-Sep-17 03:21N 38°04' E 025°36'3 1.3
2014-Sep-17 01:04N 38°06' E 025°33'2 1.6
2014-Sep-17 00:04N 38°06' E 025°31'1 1.7
2014-Sep-16 23:27N 38°07' E 025°30'5 5.5
2014-Sep-16 22:33N 38°05' E 025°24'1413.4
2014-Sep-16 21:31N 38°04' E 025°07'2612.2
2014-Sep-16 19:21N 37°55' E 024°35'1114.1
2014-Sep-16 18:33N 37°48' E 024°24'1614.0
2014-Sep-16 17:23N 37°37' E 024°09'1813.7
2014-Sep-16 16:04N 37°36' E 023°46'713.0
2014-Sep-16 15:33N 37°42' E 023°41'1312.6
2014-Sep-16 14:33N 37°50' E 023°29'22 5.1
2014-Sep-16 10:12N 37°55' E 023°02'0 0.0
2014-Sep-15 21:33N 37°55' E 023°02'0 0.0
2014-Sep-15 14:12N 37°55' E 023°02'0 0.2
2014-Sep-15 13:33N 37°55' E 023°01'0 0.0
2014-Sep-15 12:33N 37°55' E 023°01'0 0.2
2014-Sep-15 11:18N 37°55' E 023°02'0 0.1
2014-Sep-15 10:33N 37°55' E 023°02'0 0.0
2014-Sep-15 09:33N 37°55' E 023°02'0 0.0
2014-Sep-15 08:33N 37°55' E 023°02'0 0.0
2014-Sep-15 07:24N 37°55' E 023°02'0 0.0
2014-Sep-15 06:30N 37°55' E 023°02'0 0.0
2014-Sep-15 05:30N 37°55' E 023°02'0 0.0
2014-Sep-15 04:30N 37°55' E 023°02'0 0.0
2014-Sep-15 03:33N 37°55' E 023°02'0 0.0
2014-Sep-15 02:33N 37°55' E 023°02'0 0.0
2014-Sep-15 01:33N 37°55' E 023°02'0 0.0
2014-Sep-14 23:33N 37°55' E 023°02'0 0.1
2014-Sep-14 22:33N 37°55' E 023°02'0 0.0
2014-Sep-14 21:24N 37°55' E 023°02'0 0.1
2014-Sep-14 20:30N 37°55' E 023°02'0 0.1
2014-Sep-14 19:30N 37°55' E 023°02'0 0.0
2014-Sep-14 18:33N 37°55' E 023°02'0 0.1
2014-Sep-14 17:33N 37°55' E 023°02'0 0.0
2014-Sep-14 08:27N 37°55' E 023°02'0 0.0
2014-Sep-14 07:06N 37°55' E 023°02'0 0.0
2014-Sep-14 06:12N 37°55' E 023°02'0 0.0
2014-Sep-13 05:27N 37°55' E 023°02'0 0.0
2014-Sep-13 04:30N 37°55' E 023°02'0 0.0
2014-Sep-13 02:15N 37°55' E 023°02'0 0.0
2014-Sep-12 20:30N 37°55' E 023°02'0 0.0
2014-Sep-12 18:24N 37°55' E 023°02'0 0.1
2014-Sep-12 17:09N 37°55' E 023°02'0 0.0
2014-Sep-12 09:18N 37°55' E 023°02'0 0.0
2014-Sep-12 04:15N 37°55' E 023°02'0 0.0
2014-Sep-12 00:27N 37°55' E 023°02'0 0.0
2014-Sep-11 18:18N 37°55' E 023°02'0 0.0
2014-Sep-11 08:33N 37°55' E 023°02'0 0.1
2014-Sep-11 07:12N 37°55' E 023°02'0 0.1
2014-Sep-11 06:27N 37°55' E 023°02'0 0.0
2014-Sep-10 22:18N 37°55' E 023°02'0 0.0
2014-Sep-10 17:21N 37°55' E 023°01'0 0.0
2014-Sep-10 16:30N 37°55' E 023°01'  
2014-Sep-08 04:33N 37°55' E 023°02'1 0.1
2014-Sep-08 00:11N 37°55' E 023°02'0 0.0
2014-Sep-07 22:32N 37°55' E 023°02'8 6.6
2014-Sep-07 21:19N 37°53' E 023°12'911.8
2014-Sep-07 20:33N 37°51' E 023°23'1313.0
2014-Sep-07 19:34N 37°50' E 023°39'1413.8
2014-Sep-07 18:33N 37°38' E 023°47'18 1.8
2014-Sep-07 08:16N 37°46' E 024°07'7 9.5
2014-Sep-07 07:33N 37°40' E 024°11'1414.4
2014-Sep-07 06:33N 37°26' E 024°10'1413.9
2014-Sep-07 05:34N 37°12' E 024°10'1414.3
2014-Sep-07 04:34N 36°58' E 024°09'  

Dump ship's entire track history